ROMMA est une association bénévole à but non lucratif. Votre soutien est indispensable : ADHERER à ROMMA ou FAIRE un DON

Chambon - (38, Isère)

Oisans (2460 m)   Longitude: 06° 10' 42" E   Latitude: 45° 01' 32" N Station partenaire n°803
 

Détail journalier du     <<     >>

Température Humidité Vent Dir Rafale Dir. rafale Neige 1 Neige 2
Heure (°C) (%) (km/h) (km/h) (cm) (cm)
01:00 7.78816SSO36SSO03
02:00 7.49014SO28SO03
03:00 7.58814SO27SO04
04:00 7.88219SO44SO03
05:00 7.68219SSO40SSO03
06:00 7.98016SSO38SSO03
07:00 8.37622SSO46SO03
08:00 8.17824SSO52SO03
09:00 8.27726SSO53SSO03
10:00 8.87336SSO75SSO03
11:00 7.08835SSO74SSO03
12:00 7.38537SSO89SO03
13:00 6.98545SO95SO03
14:00 5.49348SO98SO03
15:00 3.79938OSO84OSO04
16:00 1.510026OSO52O04
17:00 1.010022OSO38OSO04
18:00 0.810023OSO33OSO05
19:00 -0.110018SO31OSO04
20:00 -0.69223SO38SO04
21:00 -0.68421SSO34SO04
22:00 -0.67816SO30SO04
23:00 -0.88214SO20OSO04
minuit -1.28718SO25SO04

Graphique du 09-10-2019

 

Serveur OMMA